Time;durP1;ratioP1;P1;durP2;ratioP2;P2;SDS_P1;SDS_P2;PMS_P1;PMS_P2;Temp;Humidity;BMP_temperature;BMP_pressure;BME280_temperature;BME280_humidity;BME280_pressure;Samples;Min_cycle;Max_cycle;Signal;HPM_P1;HPM_P2
2022/06/10 00:00:42;;;;;;;0.00;0.00;;;16.50;99.90;;;;;;4959815;28;20035;-70
2022/06/10 00:03:13;;;;;;;0.00;0.00;;;16.50;99.90;;;;;;4972270;28;20023;-70
2022/06/10 00:05:40;;;;;;;0.00;0.00;;;16.50;99.90;;;;;;4938846;29;20035;-70
2022/06/10 00:08:10;;;;;;;0.00;0.00;;;16.60;99.90;;;;;;4937186;29;20047;-70
2022/06/10 00:10:36;;;;;;;0.00;0.00;;;16.60;99.90;;;;;;4964996;29;20034;-69
2022/06/10 00:13:03;;;;;;;0.00;0.00;;;16.60;99.90;;;;;;4947283;29;20023;-70
2022/06/10 00:15:31;;;;;;;0.00;0.00;;;16.60;99.90;;;;;;4964765;29;20173;-69
2022/06/10 00:17:58;;;;;;;0.00;0.00;;;16.60;99.90;;;;;;4962359;29;20031;-69
2022/06/10 00:20:26;;;;;;;0.00;0.00;;;16.60;99.90;;;;;;4964406;29;20031;-69
2022/06/10 00:22:52;;;;;;;;;;;16.60;99.90;;;;;;4964953;29;20023;-73
2022/06/10 00:25:18;;;;;;;0.00;0.00;;;16.60;99.90;;;;;;4964417;29;19967;-68
2022/06/10 00:27:45;;;;;;;0.00;0.00;;;16.60;99.90;;;;;;4945694;29;20052;-69
2022/06/10 00:30:12;;;;;;;0.00;0.00;;;16.60;99.90;;;;;;4963947;29;20155;-69
2022/06/10 00:32:38;;;;;;;0.00;0.00;;;16.50;99.90;;;;;;4947070;29;20045;-70
2022/06/10 00:35:05;;;;;;;0.00;0.00;;;16.50;99.90;;;;;;4964156;29;20019;-70
2022/06/10 00:37:31;;;;;;;0.00;0.00;;;16.50;99.90;;;;;;4945714;29;20027;-70
2022/06/10 00:39:56;;;;;;;0.00;0.00;;;16.50;99.90;;;;;;4946900;29;20361;-70
2022/06/10 00:42:22;;;;;;;0.00;0.00;;;16.50;99.90;;;;;;4964090;29;20310;-71
2022/06/10 00:44:52;;;;;;;0.00;0.00;;;16.50;99.90;;;;;;4964237;29;20030;-71
2022/06/10 00:47:29;;;;;;;0.00;0.00;;;16.40;99.90;;;;;;4959572;29;20247;-70
2022/06/10 00:50:20;;;;;;;0.00;0.00;;;16.40;99.90;;;;;;4951754;29;20047;-70
2022/06/10 00:52:55;;;;;;;0.00;0.00;;;16.40;99.90;;;;;;4946970;29;20027;-69
2022/06/10 00:55:28;;;;;;;0.00;0.00;;;16.40;99.90;;;;;;4957462;28;20086;-72
2022/06/10 00:58:01;;;;;;;0.00;0.00;;;16.30;99.90;;;;;;4953120;29;20234;-74
2022/06/10 01:00:28;;;;;;;0.00;0.00;;;16.30;99.90;;;;;;4963528;29;20031;-69
2022/06/10 01:02:55;;;;;;;0.00;0.00;;;16.30;99.90;;;;;;4946225;29;20116;-73
2022/06/10 01:05:25;;;;;;;0.00;0.00;;;16.30;99.90;;;;;;4958172;28;20110;-69
2022/06/10 01:08:05;;;;;;;0.00;0.00;;;16.30;99.90;;;;;;4972717;28;20090;-69
2022/06/10 01:10:50;;;;;;;0.00;0.00;;;16.30;99.90;;;;;;4978724;28;20046;-69
2022/06/10 01:13:27;;;;;;;0.00;0.00;;;16.20;99.90;;;;;;4982712;28;20224;-69
2022/06/10 01:16:07;;;;;;;0.00;0.00;;;16.20;99.90;;;;;;4976599;28;20023;-70
2022/06/10 01:18:41;;;;;;;0.00;0.00;;;16.20;99.90;;;;;;4978928;28;20329;-69
2022/06/10 01:21:32;;;;;;;0.00;0.00;;;16.20;99.90;;;;;;4957433;28;20029;-69
2022/06/10 01:24:19;;;;;;;0.00;0.00;;;16.20;99.90;;;;;;4952424;28;20298;-70
2022/06/10 01:30:01;;;;;;;0.00;0.00;;;16.20;99.90;;;;;;4983367;28;20299;-68
2022/06/10 01:32:33;;;;;;;0.00;0.00;;;16.20;99.90;;;;;;4978112;28;20074;-68
2022/06/10 01:35:07;;;;;;;0.00;0.00;;;16.30;99.90;;;;;;4958040;28;20046;-69
2022/06/10 01:37:42;;;;;;;0.00;0.00;;;16.30;99.90;;;;;;4954140;28;20027;-69
2022/06/10 01:40:39;;;;;;;0.00;0.00;;;16.30;99.90;;;;;;4982553;28;20031;-69
2022/06/10 01:43:28;;;;;;;0.00;0.00;;;16.30;99.90;;;;;;4979255;28;20098;-68
2022/06/10 01:46:06;;;;;;;0.00;0.00;;;16.30;99.90;;;;;;4976697;28;20030;-69
2022/06/10 01:48:51;;;;;;;0.00;0.00;;;16.20;99.90;;;;;;4953666;28;20023;-69
2022/06/10 01:51:19;;;;;;;0.00;0.00;;;16.30;99.90;;;;;;4982587;28;20311;-69
2022/06/10 01:54:04;;;;;;;0.00;0.00;;;16.30;99.90;;;;;;4982412;28;20229;-68
2022/06/10 01:56:40;;;;;;;0.00;0.00;;;16.30;99.90;;;;;;4973331;28;20086;-69
2022/06/10 01:59:35;;;;;;;0.00;0.00;;;16.30;99.90;;;;;;4952863;28;20043;-69
2022/06/10 02:02:25;;;;;;;0.00;0.00;;;16.30;99.90;;;;;;4977538;28;20038;-69
2022/06/10 02:05:01;;;;;;;0.00;0.00;;;16.30;99.90;;;;;;4967464;28;20215;-69
2022/06/10 02:07:32;;;;;;;0.00;0.00;;;16.30;99.90;;;;;;4967010;28;20031;-69
2022/06/10 02:10:24;;;;;;;0.00;0.00;;;16.30;99.90;;;;;;4959822;28;20023;-73
2022/06/10 02:12:56;;;;;;;0.00;0.00;;;16.30;99.90;;;;;;4953360;29;20031;-69
2022/06/10 02:15:31;;;;;;;0.00;0.00;;;16.30;99.90;;;;;;4970792;28;20054;-69
2022/06/10 02:18:03;;;;;;;0.00;0.00;;;16.30;99.90;;;;;;4960484;28;20046;-71
2022/06/10 02:20:32;;;;;;;0.00;0.00;;;16.30;99.90;;;;;;4942692;28;20035;-69
2022/06/10 02:22:59;;;;;;;;;;;16.30;99.90;;;;;;4944920;28;20079;-73
2022/06/10 02:25:34;;;;;;;0.00;0.00;;;16.30;99.90;;;;;;4945486;28;20190;-73
2022/06/10 02:28:06;;;;;;;0.00;0.00;;;16.30;99.90;;;;;;4946274;28;20039;-73
2022/06/10 02:30:52;;;;;;;0.00;0.00;;;16.30;99.90;;;;;;4946873;28;20337;-72
2022/06/10 02:33:18;;;;;;;0.00;0.00;;;16.30;99.90;;;;;;4947816;28;20196;-69
2022/06/10 02:36:08;;;;;;;0.00;0.00;;;16.30;99.90;;;;;;4945479;28;20583;-73
2022/06/10 02:38:46;;;;;;;0.00;0.00;;;16.30;99.90;;;;;;4936080;28;20037;-69
2022/06/10 02:41:28;;;;;;;0.00;0.00;;;16.30;99.90;;;;;;4947325;28;20023;-74
2022/06/10 02:44:17;;;;;;;0.00;0.00;;;16.30;99.90;;;;;;4934542;29;20038;-70
2022/06/10 02:47:00;;;;;;;0.00;0.00;;;16.30;99.90;;;;;;4935915;28;20086;-70
2022/06/10 02:49:27;;;;;;;0.00;0.00;;;16.30;99.90;;;;;;4942117;29;20035;-70
2022/06/10 02:51:53;;;;;;;0.00;0.00;;;16.30;99.90;;;;;;4956196;29;20244;-69
2022/06/10 02:54:30;;;;;;;0.00;0.00;;;16.30;99.90;;;;;;4959686;28;20077;-69
2022/06/10 02:56:57;;;;;;;0.00;0.00;;;16.30;99.90;;;;;;4970865;28;20082;-70
2022/06/10 03:02:23;;;;;;;0.00;0.00;;;16.30;99.90;;;;;;4973923;28;20038;-70
2022/06/10 03:05:04;;;;;;;0.00;0.00;;;16.30;99.90;;;;;;4973919;28;20047;-71
2022/06/10 03:07:35;;;;;;;0.00;0.00;;;16.30;99.90;;;;;;4971618;28;20233;-70
2022/06/10 03:10:05;;;;;;;0.00;0.00;;;16.30;99.90;;;;;;4966804;28;20066;-73
2022/06/10 03:12:44;;;;;;;0.00;0.00;;;16.30;99.90;;;;;;4969334;28;20202;-69
2022/06/10 03:15:57;;;;;;;0.00;0.00;;;16.30;99.90;;;;;;4970813;28;20074;-70
2022/06/10 03:18:52;;;;;;;0.00;0.00;;;16.30;99.90;;;;;;4934928;28;20139;-71
2022/06/10 03:21:41;;;;;;;0.00;0.00;;;16.30;99.90;;;;;;4967980;28;20023;-70
2022/06/10 03:24:11;;;;;;;0.00;0.00;;;16.40;99.90;;;;;;4949665;28;20203;-70
2022/06/10 03:26:53;;;;;;;0.00;0.00;;;16.40;99.90;;;;;;4951325;28;20074;-69
2022/06/10 03:29:26;;;;;;;0.00;0.00;;;16.40;99.90;;;;;;4969966;28;20026;-69
2022/06/10 03:31:58;;;;;;;0.00;0.00;;;16.40;99.90;;;;;;4952890;29;20027;-69
2022/06/10 03:34:32;;;;;;;0.00;0.00;;;16.40;99.90;;;;;;4970022;28;20330;-73
2022/06/10 03:36:59;;;;;;;0.00;0.00;;;16.40;99.90;;;;;;4951141;28;20207;-69
2022/06/10 03:39:26;;;;;;;0.00;0.00;;;16.30;99.90;;;;;;4959010;28;20062;-70
2022/06/10 03:42:03;;;;;;;0.00;0.00;;;16.30;99.90;;;;;;4969758;28;20027;-69
2022/06/10 03:44:31;;;;;;;0.00;0.00;;;16.30;99.90;;;;;;4953616;28;20023;-69
2022/06/10 03:46:57;;;;;;;0.00;0.00;;;16.30;99.90;;;;;;4973217;28;20051;-70
2022/06/10 03:49:29;;;;;;;0.00;0.00;;;16.30;99.90;;;;;;4969200;28;20035;-69
2022/06/10 03:51:55;;;;;;;0.00;0.00;;;16.30;99.90;;;;;;4962816;28;20031;-70
2022/06/10 03:54:21;;;;;;;0.00;0.00;;;16.30;99.90;;;;;;4944033;29;20018;-69
2022/06/10 03:56:47;;;;;;;0.00;0.00;;;16.30;99.90;;;;;;4973241;28;20334;-69
2022/06/10 03:59:13;;;;;;;0.00;0.00;;;16.30;99.90;;;;;;4968718;28;20038;-69
2022/06/10 04:01:38;;;;;;;0.00;0.00;;;16.30;99.90;;;;;;4974395;28;20023;-68
2022/06/10 04:04:04;;;;;;;0.00;0.00;;;16.30;99.90;;;;;;4971387;28;20130;-73
2022/06/10 04:06:31;;;;;;;0.00;0.00;;;16.30;99.90;;;;;;4955175;29;20032;-69
2022/06/10 04:08:57;;;;;;;0.00;0.00;;;16.40;99.90;;;;;;4923510;29;20019;-72
2022/06/10 04:11:23;;;;;;;0.00;0.00;;;16.40;99.90;;;;;;4926197;29;20047;-71
2022/06/10 04:13:49;;;;;;;0.00;0.00;;;16.40;99.90;;;;;;4923469;29;20024;-70
2022/06/10 04:16:14;;;;;;;0.00;0.00;;;16.40;99.90;;;;;;4924103;29;20037;-69
2022/06/10 04:18:40;;;;;;;0.00;0.00;;;16.30;99.90;;;;;;4957134;29;20023;-70
2022/06/10 04:21:06;;;;;;;0.00;0.00;;;16.40;99.90;;;;;;4947283;29;20023;-73
2022/06/10 04:23:32;;;;;;;0.00;0.00;;;16.30;99.90;;;;;;4947794;29;20042;-70
2022/06/10 04:25:58;;;;;;;0.00;0.00;;;16.30;99.90;;;;;;4947648;29;20246;-70
2022/06/10 04:28:24;;;;;;;0.00;0.00;;;16.30;99.90;;;;;;4944331;29;20334;-73
2022/06/10 04:30:51;;;;;;;0.00;0.00;;;16.40;99.90;;;;;;4963911;28;20031;-69
2022/06/10 04:33:18;;;;;;;0.00;0.00;;;16.40;99.90;;;;;;4947064;29;20057;-69
2022/06/10 04:35:46;;;;;;;0.00;0.00;;;16.30;99.90;;;;;;4964222;29;20051;-69
2022/06/10 04:38:14;;;;;;;0.00;0.00;;;16.30;99.90;;;;;;4959562;29;20024;-69
2022/06/10 04:40:40;;;;;;;0.00;0.00;;;16.30;99.90;;;;;;4946857;29;20039;-70
2022/06/10 04:43:07;;;;;;;0.00;0.00;;;16.40;99.90;;;;;;4947154;29;20300;-74
2022/06/10 04:45:38;;;;;;;0.00;0.00;;;16.30;99.90;;;;;;4964416;29;20027;-69
2022/06/10 04:48:04;;;;;;;0.00;0.00;;;16.40;99.90;;;;;;4945278;29;20361;-69
2022/06/10 04:50:30;;;;;;;0.00;0.00;;;16.40;99.90;;;;;;4964088;29;20023;-69
2022/06/10 04:52:56;;;;;;;0.00;0.00;;;16.30;99.90;;;;;;4964496;29;20027;-69
2022/06/10 04:55:23;;;;;;;0.00;0.00;;;16.40;99.90;;;;;;4939322;29;20019;-69
2022/06/10 04:57:49;;;;;;;0.00;0.00;;;16.40;99.90;;;;;;4943290;29;20042;-69
2022/06/10 05:00:22;;;;;;;0.00;0.00;;;16.30;99.90;;;;;;4954442;29;20307;-69
2022/06/10 05:02:47;;;;;;;0.00;0.00;;;16.30;99.90;;;;;;4959221;29;20329;-69
2022/06/10 05:05:13;;;;;;;0.00;0.00;;;16.30;99.90;;;;;;4972034;28;20106;-69
2022/06/10 05:07:39;;;;;;;0.00;0.00;;;16.30;99.90;;;;;;4973123;28;20019;-69
2022/06/10 05:10:05;;;;;;;0.00;0.00;;;16.30;99.90;;;;;;4973274;28;20038;-69
2022/06/10 05:12:31;;;;;;;0.00;0.00;;;16.30;99.90;;;;;;4957172;28;20035;-69
2022/06/10 05:14:57;;;;;;;0.00;0.00;;;16.30;99.90;;;;;;4955306;29;20027;-69
2022/06/10 05:17:23;;;;;;;0.00;0.00;;;16.20;99.90;;;;;;4957570;28;20022;-70
2022/06/10 05:19:48;;;;;;;0.00;0.00;;;16.20;99.90;;;;;;4972383;28;20338;-69
2022/06/10 05:22:16;;;;;;;0.00;0.00;;;16.20;99.90;;;;;;4973962;28;20015;-71
2022/06/10 05:24:42;;;;;;;0.00;0.00;;;16.20;99.90;;;;;;4958542;28;20217;-69
2022/06/10 05:27:09;;;;;;;0.00;0.00;;;16.10;99.90;;;;;;4972500;28;20031;-69
2022/06/10 05:29:35;;;;;;;0.00;0.00;;;16.10;99.90;;;;;;4967966;28;20026;-69
2022/06/10 05:32:01;;;;;;;0.00;0.00;;;16.10;99.90;;;;;;4955159;28;20033;-69
2022/06/10 05:34:45;;;;;;;0.00;0.00;;;16.20;99.90;;;;;;4974553;28;20047;-69
2022/06/10 05:37:20;;;;;;;0.00;0.00;;;16.20;99.90;;;;;;4954116;28;20023;-74
2022/06/10 05:39:46;;;;;;;0.00;0.00;;;16.20;99.90;;;;;;4970826;28;20027;-69
2022/06/10 05:42:12;;;;;;;0.00;0.00;;;16.10;99.90;;;;;;4956515;28;20324;-73
2022/06/10 05:44:41;;;;;;;0.00;0.00;;;16.10;99.90;;;;;;4972079;28;20218;-69
2022/06/10 05:47:10;;;;;;;0.00;0.00;;;16.10;99.90;;;;;;4954673;28;20054;-70
2022/06/10 05:49:41;;;;;;;0.00;0.00;;;16.10;99.90;;;;;;4973757;28;20026;-69
2022/06/10 05:52:10;;;;;;;0.00;0.00;;;16.10;99.90;;;;;;4953332;29;20026;-71
2022/06/10 05:54:38;;;;;;;0.00;0.00;;;16.10;99.90;;;;;;4975657;28;20023;-70
2022/06/10 05:57:04;;;;;;;;;;;16.10;99.90;;;;;;4968305;28;20075;-70
2022/06/10 05:59:33;;;;;;;0.00;0.00;;;16.10;99.90;;;;;;4974363;28;19980;-70
2022/06/10 06:02:03;;;;;;;0.00;0.00;;;16.10;99.90;;;;;;4955070;28;20030;-71
2022/06/10 06:04:29;;;;;;;0.00;0.00;;;16.10;99.90;;;;;;4974371;28;20047;-69
2022/06/10 06:06:55;;;;;;;0.00;0.00;;;16.10;99.90;;;;;;4954980;28;20074;-71
2022/06/10 06:09:22;;;;;;;0.00;0.00;;;16.10;99.90;;;;;;4972352;28;20314;-71
2022/06/10 06:11:49;;;;;;;0.00;0.00;;;16.10;99.90;;;;;;4973500;28;20015;-71
2022/06/10 06:14:17;;;;;;;0.00;0.00;;;16.10;99.90;;;;;;4972745;28;20058;-71
2022/06/10 06:16:45;;;;;;;0.00;0.00;;;16.10;99.90;;;;;;4974312;28;20046;-70
2022/06/10 06:19:10;;;;;;;0.00;0.00;;;16.10;99.90;;;;;;4971659;28;20364;-71
2022/06/10 06:21:36;;;;;;;0.00;0.00;;;16.10;99.90;;;;;;4953934;29;20059;-71
2022/06/10 06:24:02;;;;;;;0.00;0.00;;;16.10;99.90;;;;;;4974866;28;20034;-70
2022/06/10 06:26:28;;;;;;;0.00;0.00;;;16.10;99.90;;;;;;4954407;28;20214;-72
2022/06/10 06:28:54;;;;;;;0.00;0.00;;;16.10;99.90;;;;;;4955428;28;20154;-71
2022/06/10 06:31:20;;;;;;;0.00;0.00;;;16.10;99.90;;;;;;4955507;28;20290;-71
2022/06/10 06:33:45;;;;;;;0.00;0.00;;;16.20;99.90;;;;;;4972140;28;20028;-72
2022/06/10 06:36:19;;;;;;;0.00;0.00;;;16.20;99.90;;;;;;4956960;28;20306;-71
2022/06/10 06:38:45;;;;;;;0.00;0.00;;;16.20;99.90;;;;;;4954001;29;20219;-72
2022/06/10 06:41:11;;;;;;;0.00;0.00;;;16.20;99.90;;;;;;4974690;28;20015;-69
2022/06/10 06:43:37;;;;;;;0.00;0.00;;;16.20;99.90;;;;;;4954498;29;20051;-70
2022/06/10 06:46:03;;;;;;;0.00;0.00;;;16.20;99.90;;;;;;4973900;28;20050;-71
2022/06/10 06:48:29;;;;;;;0.00;0.00;;;16.20;99.90;;;;;;4954786;28;20058;-71
2022/06/10 06:50:55;;;;;;;0.00;0.00;;;16.20;99.90;;;;;;4975144;28;20074;-71
2022/06/10 06:53:21;;;;;;;0.00;0.00;;;16.20;99.90;;;;;;4966729;28;20317;-71
2022/06/10 06:55:47;;;;;;;0.00;0.00;;;16.20;99.90;;;;;;4977665;28;20033;-71
2022/06/10 06:58:16;;;;;;;0.00;0.00;;;16.20;99.90;;;;;;4970476;28;20074;-72
2022/06/10 07:00:41;;;;;;;0.00;0.00;;;16.20;99.90;;;;;;4974451;28;20042;-72
2022/06/10 07:03:08;;;;;;;0.00;0.00;;;16.20;99.90;;;;;;4978515;28;20039;-72
2022/06/10 07:05:35;;;;;;;0.00;0.00;;;16.30;99.90;;;;;;4965692;29;20315;-71
2022/06/10 07:08:01;;;;;;;0.00;0.00;;;16.30;99.90;;;;;;4946819;29;20020;-71
2022/06/10 07:10:27;;;;;;;0.00;0.00;;;16.30;99.90;;;;;;4966067;29;20033;-71
2022/06/10 07:12:53;;;;;;;0.00;0.00;;;16.30;99.90;;;;;;4958033;29;20318;-71
2022/06/10 07:15:21;;;;;;;0.00;0.00;;;16.20;99.90;;;;;;4937128;29;20030;-71
2022/06/10 07:17:47;;;;;;;0.00;0.00;;;16.30;99.90;;;;;;4955657;29;20095;-72
2022/06/10 07:20:25;;;;;;;0.00;0.00;;;16.30;99.90;;;;;;4953124;29;20042;-71
2022/06/10 07:22:51;;;;;;;0.00;0.00;;;16.30;99.90;;;;;;4931658;29;20076;-71
2022/06/10 07:25:17;;;;;;;0.00;0.00;;;16.40;99.90;;;;;;4936677;29;20106;-76
2022/06/10 07:27:45;;;;;;;0.00;0.00;;;16.40;99.90;;;;;;4951305;29;20038;-72
2022/06/10 07:30:14;;;;;;;0.00;0.00;;;16.50;99.90;;;;;;4952294;29;20056;-70
2022/06/10 07:32:42;;;;;;;0.00;0.00;;;16.60;99.90;;;;;;4934856;29;20027;-71
2022/06/10 07:35:08;;;;;;;0.00;0.00;;;16.60;99.90;;;;;;4954152;29;20020;-70
2022/06/10 07:37:33;;;;;;;0.00;0.00;;;16.60;99.90;;;;;;4954057;29;20325;-71
2022/06/10 07:39:59;;;;;;;0.00;0.00;;;16.60;99.90;;;;;;4935464;29;20035;-71
2022/06/10 07:42:25;;;;;;;0.00;0.00;;;16.70;99.90;;;;;;4955600;29;20052;-71
2022/06/10 07:44:51;;;;;;;0.00;0.00;;;16.70;99.90;;;;;;4954745;29;20042;-71
2022/06/10 07:47:16;;;;;;;0.00;0.00;;;16.70;99.90;;;;;;4942366;29;20050;-75
2022/06/10 07:49:42;;;;;;;0.00;0.00;;;16.80;99.90;;;;;;4952943;29;20050;-70
2022/06/10 07:52:09;;;;;;;0.00;0.00;;;16.80;99.90;;;;;;4955147;29;20083;-71
2022/06/10 07:54:36;;;;;;;0.00;0.00;;;16.80;99.90;;;;;;4954030;29;20019;-70
2022/06/10 07:57:04;;;;;;;0.00;0.00;;;16.80;99.90;;;;;;4936087;29;20035;-70
2022/06/10 07:59:30;;;;;;;0.00;0.00;;;16.90;99.90;;;;;;4931919;29;20054;-71
2022/06/10 08:01:56;;;;;;;0.00;0.00;;;16.90;99.90;;;;;;4951907;29;20295;-71
2022/06/10 08:04:21;;;;;;;0.00;0.00;;;16.90;99.90;;;;;;4945875;28;20058;-71
2022/06/10 08:06:48;;;;;;;0.00;0.00;;;16.90;99.90;;;;;;4959362;28;20030;-71
2022/06/10 08:09:16;;;;;;;0.00;0.00;;;17.00;99.90;;;;;;4954008;29;20239;-70
2022/06/10 08:11:42;;;;;;;;;;;17.00;99.90;;;;;;4970126;28;20019;-71
2022/06/10 08:14:08;;;;;;;0.00;0.00;;;17.00;99.90;;;;;;4969922;28;19921;-71
2022/06/10 08:16:36;;;;;;;0.00;0.00;;;17.00;99.90;;;;;;4974607;28;20023;-70
2022/06/10 08:19:02;;;;;;;0.00;0.00;;;17.10;99.90;;;;;;4956531;28;20046;-70
2022/06/10 08:24:12;;;;;;;0.00;0.00;;;16.90;99.90;;;;;;4957274;28;20583;-78
2022/06/10 08:26:38;;;;;;;0.00;0.00;;;16.90;99.90;;;;;;4938919;29;20035;-76
2022/06/10 08:29:04;;;;;;;0.00;0.00;;;16.90;99.90;;;;;;4962941;28;20090;-71
2022/06/10 08:31:30;;;;;;;0.00;0.00;;;16.90;99.90;;;;;;4943540;28;20075;-72
2022/06/10 08:33:57;;;;;;;0.00;0.00;;;16.90;99.90;;;;;;4962280;28;20019;-73
2022/06/10 08:36:23;;;;;;;0.00;0.00;;;16.90;99.90;;;;;;4961932;28;20047;-77
2022/06/10 08:38:48;;;;;;;0.00;0.00;;;16.80;99.90;;;;;;4961033;28;20298;-70
2022/06/10 08:41:39;;;;;;;0.00;0.00;;;16.90;99.90;;;;;;4943597;28;20035;-71
2022/06/10 08:44:23;;;;;;;0.00;0.00;;;16.90;99.90;;;;;;4943147;28;20251;-71
2022/06/10 08:47:10;;;;;;;0.00;0.00;;;17.00;99.90;;;;;;4961833;28;20082;-71
2022/06/10 08:49:52;;;;;;;0.00;0.00;;;17.00;99.90;;;;;;4958321;28;20066;-71
2022/06/10 08:52:38;;;;;;;0.00;0.00;;;17.00;99.90;;;;;;4943084;29;20027;-71
2022/06/10 08:55:21;;;;;;;0.00;0.00;;;17.00;99.90;;;;;;4944344;29;20106;-71
2022/06/10 08:57:48;;;;;;;0.00;0.00;;;17.10;99.90;;;;;;4963660;28;20055;-72
2022/06/10 09:00:19;;;;;;;0.00;0.00;;;17.10;99.90;;;;;;4943126;29;20333;-72
2022/06/10 09:02:52;;;;;;;0.00;0.00;;;17.20;99.90;;;;;;4943034;29;20031;-72
2022/06/10 09:05:33;;;;;;;0.00;0.00;;;17.10;99.90;;;;;;4927345;29;20051;-74
2022/06/10 09:08:02;;;;;;;0.00;0.00;;;17.20;99.90;;;;;;4939877;29;20034;-73
2022/06/10 09:10:51;;;;;;;0.00;0.00;;;17.30;99.90;;;;;;4941760;29;20318;-75
2022/06/10 09:13:39;;;;;;;0.00;0.00;;;17.30;99.90;;;;;;4921693;29;20298;-78
2022/06/10 09:16:05;;;;;;;0.00;0.00;;;17.30;99.90;;;;;;4934442;29;20048;-72
2022/06/10 09:18:45;;;;;;;0.00;0.00;;;17.40;99.90;;;;;;4922629;29;20050;-73
2022/06/10 09:21:36;;;;;;;0.00;0.00;;;17.40;99.90;;;;;;4941922;29;20036;-73
2022/06/10 09:24:10;;;;;;;0.00;0.00;;;17.50;99.90;;;;;;4922442;29;20094;-72
2022/06/10 09:26:41;;;;;;;0.00;0.00;;;17.50;99.90;;;;;;4924565;29;20031;-72
2022/06/10 09:29:08;;;;;;;0.00;0.00;;;17.60;99.90;;;;;;4925424;29;20110;-71
2022/06/10 09:31:49;;;;;;;0.00;0.00;;;17.60;99.90;;;;;;4924483;29;20027;-73
2022/06/10 09:34:21;;;;;;;0.00;0.00;;;17.60;99.90;;;;;;4925387;29;20028;-73
2022/06/10 09:37:21;;;;;;;0.00;0.00;;;17.60;99.90;;;;;;4941978;29;20031;-73
2022/06/10 09:43:19;;;;;;;0.00;0.00;;;17.60;99.90;;;;;;4943233;29;20026;-74
2022/06/10 09:46:14;;;;;;;0.00;0.00;;;17.60;99.90;;;;;;4932682;29;20035;-74
2022/06/10 09:48:58;;;;;;;0.00;0.00;;;17.60;99.90;;;;;;4931259;29;20019;-74
2022/06/10 09:51:44;;;;;;;0.00;0.00;;;17.60;99.90;;;;;;4945275;29;20057;-79
2022/06/10 09:54:38;;;;;;;0.00;0.00;;;17.70;99.90;;;;;;4949181;29;20028;-73
2022/06/10 09:57:22;;;;;;;0.00;0.00;;;17.70;99.90;;;;;;4946325;29;20295;-77
2022/06/10 10:00:15;;;;;;;0.00;0.00;;;17.60;99.90;;;;;;4946999;29;20050;-73
2022/06/10 10:02:59;;;;;;;0.00;0.00;;;17.60;99.90;;;;;;4927806;29;20039;-71
2022/06/10 10:05:31;;;;;;;0.00;0.00;;;17.60;99.90;;;;;;4966164;28;20071;-75
2022/06/10 10:08:18;;;;;;;0.00;0.00;;;17.60;99.90;;;;;;4946780;29;20027;-71
2022/06/10 10:11:03;;;;;;;0.00;0.00;;;17.60;99.90;;;;;;4945854;29;20067;-71
2022/06/10 10:14:06;;;;;;;0.00;0.00;;;17.60;99.90;;;;;;4969681;28;20082;-71
2022/06/10 10:17:12;;;;;;;0.00;0.00;;;17.60;99.90;;;;;;4948460;29;20202;-73
2022/06/10 10:19:46;;;;;;;0.00;0.00;;;17.50;99.90;;;;;;4937738;29;20039;-72
2022/06/10 10:22:31;;;;;;;0.00;0.00;;;17.50;99.90;;;;;;4948178;29;20065;-72
2022/06/10 10:24:58;;;;;;;0.00;0.00;;;17.50;99.90;;;;;;4949572;28;20019;-73
2022/06/10 10:27:31;;;;;;;0.00;0.00;;;17.50;99.90;;;;;;4941753;28;20031;-76
2022/06/10 10:30:19;;;;;;;0.00;0.00;;;17.40;99.90;;;;;;4968594;28;20183;-71
2022/06/10 10:32:48;;;;;;;;;;;17.40;99.90;;;;;;4951462;28;20077;-72
2022/06/10 10:35:36;;;;;;;0.00;0.00;;;17.40;99.90;;;;;;4954161;29;19937;-72
2022/06/10 10:38:31;;;;;;;0.00;0.00;;;17.40;99.90;;;;;;4970989;28;20142;-75
2022/06/10 10:40:57;;;;;;;0.00;0.00;;;17.40;99.90;;;;;;4939312;29;20050;-72
2022/06/10 10:43:31;;;;;;;0.00;0.00;;;17.40;99.90;;;;;;4951956;28;20206;-72
2022/06/10 10:46:07;;;;;;;0.00;0.00;;;17.40;99.90;;;;;;4956123;28;20048;-71
2022/06/10 10:48:44;;;;;;;0.00;0.00;;;17.40;99.90;;;;;;4974259;28;20019;-71
2022/06/10 10:51:09;;;;;;;0.00;0.00;;;17.40;99.90;;;;;;4973814;28;20139;-72
2022/06/10 10:53:54;;;;;;;0.00;0.00;;;17.40;99.90;;;;;;4952743;28;20015;-73
2022/06/10 10:56:33;;;;;;;0.00;0.00;;;17.40;99.90;;;;;;4947337;29;20027;-72
2022/06/10 10:58:59;;;;;;;0.00;0.00;;;17.50;99.90;;;;;;4972877;28;20023;-73
2022/06/10 11:01:51;;;;;;;0.00;0.00;;;17.50;99.90;;;;;;4977190;28;20031;-73
2022/06/10 11:04:19;;;;;;;0.00;0.00;;;17.60;99.90;;;;;;4962737;28;20318;-72
2022/06/10 11:06:45;;;;;;;0.00;0.00;;;17.60;99.90;;;;;;4974116;28;20298;-72
2022/06/10 11:09:19;;;;;;;0.00;0.00;;;17.60;99.90;;;;;;4971174;28;20075;-73
2022/06/10 11:11:46;;;;;;;0.00;0.00;;;17.60;99.90;;;;;;4950755;28;20320;-74
2022/06/10 11:14:33;;;;;;;0.00;0.00;;;17.60;99.90;;;;;;4968396;28;20019;-73
2022/06/10 11:17:14;;;;;;;0.00;0.00;;;17.60;99.90;;;;;;4968541;28;20302;-71
2022/06/10 11:19:48;;;;;;;0.00;0.00;;;17.70;99.90;;;;;;4968129;28;20163;-76
2022/06/10 11:22:39;;;;;;;0.00;0.00;;;17.80;99.90;;;;;;4968862;28;20106;-72
2022/06/10 11:25:17;;;;;;;0.00;0.00;;;17.80;99.90;;;;;;4957543;29;20027;-72
2022/06/10 11:27:48;;;;;;;0.00;0.00;;;17.80;99.90;;;;;;4969485;28;20026;-73
2022/06/10 11:30:14;;;;;;;0.00;0.00;;;17.80;99.90;;;;;;4972498;28;20086;-72
2022/06/10 11:32:39;;;;;;;0.00;0.00;;;17.90;99.90;;;;;;4967264;28;20024;-73
2022/06/10 11:35:39;;;;;;;0.00;0.00;;;17.90;99.90;;;;;;4966881;28;20027;-71
2022/06/10 11:38:16;;;;;;;0.00;0.00;;;18.00;99.90;;;;;;4959359;28;20058;-72
2022/06/10 11:40:50;;;;;;;0.00;0.00;;;18.00;99.90;;;;;;4950054;28;20047;-72
2022/06/10 11:43:35;;;;;;;0.00;0.00;;;18.00;99.90;;;;;;4970173;28;20306;-71
2022/06/10 11:46:29;;;;;;;0.00;0.00;;;18.10;99.90;;;;;;4969225;28;20042;-72
2022/06/10 11:49:06;;;;;;;0.00;0.00;;;18.00;99.90;;;;;;4968375;28;20050;-72
2022/06/10 11:51:38;;;;;;;0.00;0.00;;;18.10;99.90;;;;;;4969328;28;20090;-72
2022/06/10 11:54:29;;;;;;;0.00;0.00;;;18.10;99.90;;;;;;4951502;29;20271;-72
2022/06/10 12:00:00;;;;;;;0.00;0.00;;;18.10;99.90;;;;;;4966267;28;20205;-71
2022/06/10 12:02:30;;;;;;;0.00;0.00;;;18.20;99.90;;;;;;4951334;29;20024;-72
2022/06/10 12:05:08;;;;;;;0.00;0.00;;;18.20;99.90;;;;;;4949769;28;20087;-72
2022/06/10 12:07:36;;;;;;;;;;;18.20;99.90;;;;;;4951975;29;20094;-72
2022/06/10 12:10:07;;;;;;;0.00;0.00;;;18.40;99.90;;;;;;4968937;28;19921;-71
2022/06/10 12:12:38;;;;;;;0.00;0.00;;;18.40;99.90;;;;;;4956825;28;20215;-73
2022/06/10 12:15:24;;;;;;;0.00;0.00;;;18.50;99.90;;;;;;4969718;28;20026;-72
2022/06/10 12:17:54;;;;;;;0.00;0.00;;;18.60;99.90;;;;;;4950051;29;20051;-71
2022/06/10 12:20:42;;;;;;;0.00;0.00;;;18.60;99.90;;;;;;4966852;28;20086;-71
2022/06/10 12:23:22;;;;;;;0.00;0.00;;;18.50;99.90;;;;;;4946107;29;20023;-71
2022/06/10 12:25:55;;;;;;;0.00;0.00;;;18.50;99.90;;;;;;4969689;28;20023;-69
2022/06/10 12:28:46;;;;;;;0.00;0.00;;;18.50;99.90;;;;;;4971678;28;20209;-71
2022/06/10 12:31:19;;;;;;;0.00;0.00;;;18.50;99.90;;;;;;4967057;28;20087;-71
2022/06/10 12:33:57;;;;;;;0.00;0.00;;;18.50;99.90;;;;;;4965846;28;20039;-71
2022/06/10 12:36:35;;;;;;;0.00;0.00;;;18.50;99.90;;;;;;4966033;28;20329;-71
2022/06/10 12:39:02;;;;;;;0.00;0.00;;;18.50;99.90;;;;;;4948797;28;20027;-71
2022/06/10 12:41:40;;;;;;;0.00;0.00;;;18.50;99.90;;;;;;4975116;28;20073;-73
2022/06/10 12:44:13;;;;;;;0.00;0.00;;;18.60;99.90;;;;;;4975891;28;20019;-74
2022/06/10 12:46:46;;;;;;;0.00;0.00;;;18.70;99.90;;;;;;4973968;28;20322;-74
2022/06/10 12:49:38;;;;;;;0.00;0.00;;;18.70;99.90;;;;;;4956338;28;20027;-73
2022/06/10 12:52:10;;;;;;;0.00;0.00;;;18.80;99.90;;;;;;4953267;28;20019;-73
2022/06/10 12:54:56;;;;;;;0.00;0.00;;;18.70;99.90;;;;;;4971450;28;20019;-75
2022/06/10 12:57:28;;;;;;;0.00;0.00;;;18.70;99.90;;;;;;4969946;28;20401;-75
2022/06/10 13:00:39;;;;;;;0.00;0.00;;;18.70;99.90;;;;;;4951821;29;20448;-74
2022/06/10 13:03:14;;;;;;;0.00;0.00;;;18.70;99.90;;;;;;4913250;29;20223;-75
2022/06/10 13:05:40;;;;;;;0.00;0.00;;;18.70;99.90;;;;;;4963672;28;20050;-77
2022/06/10 13:08:34;;;;;;;0.00;0.00;;;18.70;99.90;;;;;;4956103;28;20090;-75
2022/06/10 13:11:03;;;;;;;0.00;0.00;;;18.60;99.90;;;;;;4952476;28;20027;-75
2022/06/10 13:13:29;;;;;;;0.00;0.00;;;18.60;99.90;;;;;;4975014;28;20334;-74
2022/06/10 13:16:16;;;;;;;0.00;0.00;;;18.60;99.90;;;;;;4954433;29;20023;-75
2022/06/10 13:18:54;;;;;;;0.00;0.00;;;18.50;99.90;;;;;;4972583;28;20027;-81
2022/06/10 13:21:31;;;;;;;0.00;0.00;;;18.50;99.90;;;;;;4949623;28;20148;-74
2022/06/10 13:24:15;;;;;;;0.00;0.00;;;18.60;99.90;;;;;;4968648;28;20098;-77
2022/06/10 13:26:42;;;;;;;0.00;0.00;;;18.60;99.90;;;;;;4949447;28;20332;-81
2022/06/10 13:29:17;;;;;;;0.00;0.00;;;18.70;99.90;;;;;;4964814;28;20026;-75
2022/06/10 13:31:54;;;;;;;0.00;0.00;;;18.70;99.90;;;;;;4944603;28;20299;-76
2022/06/10 13:34:23;;;;;;;0.00;0.00;;;18.80;99.90;;;;;;4950493;29;20024;-75